Time;durP1;ratioP1;P1;durP2;ratioP2;P2;SDS_P1;SDS_P2;PMS_P1;PMS_P2;Temp;Humidity;BMP_temperature;BMP_pressure;BME280_temperature;BME280_humidity;BME280_pressure;Samples;Min_cycle;Max_cycle;Signal;HPM_P1;HPM_P2
2021/05/10 03:25:20;;;;;;;16.37;14.90;;;14.70;99.90;;;;;;5891086;23;20473;-71
2021/05/10 03:27:47;;;;;;;15.43;14.53;;;14.70;99.90;;;;;;4988424;28;20470;-69
2021/05/10 03:30:15;;;;;;;15.80;14.70;;;14.60;99.90;;;;;;4987342;28;20530;-68
2021/05/10 03:32:42;;;;;;;14.40;13.40;;;14.60;99.90;;;;;;4980213;28;20851;-68
2021/05/10 03:35:11;;;;;;;17.60;16.40;;;14.70;99.90;;;;;;4973285;28;20459;-68
2021/05/10 03:37:38;;;;;;;16.93;15.63;;;14.80;99.90;;;;;;4973340;28;20451;-69
2021/05/10 03:40:05;;;;;;;17.20;15.77;;;14.80;99.90;;;;;;4973447;28;20820;-70
2021/05/10 03:42:32;;;;;;;17.27;15.73;;;14.80;99.90;;;;;;4973335;28;20451;-69
2021/05/10 03:44:58;;;;;;;16.00;14.90;;;14.90;99.90;;;;;;4972980;28;20855;-70
2021/05/10 18:39:50;;;;;;;9.23;8.83;;;17.50;99.90;;;;;;5792343;23;20510;-70
2021/05/10 18:42:16;;;;;;;9.07;8.77;;;17.30;99.90;;;;;;4992102;28;20446;-70
2021/05/10 18:44:44;;;;;;;9.50;9.10;;;17.20;99.90;;;;;;4993840;28;21012;-70
2021/05/10 18:47:11;;;;;;;10.30;9.50;;;17.10;99.90;;;;;;4993939;28;20458;-70
2021/05/10 18:49:40;;;;;;;9.00;8.70;;;17.10;99.90;;;;;;4993973;28;20459;-71
2021/05/10 18:52:06;;;;;;;9.40;8.90;;;17.00;99.90;;;;;;4993957;28;20446;-70
2021/05/10 18:54:32;;;;;;;9.60;9.30;;;16.90;99.90;;;;;;4993398;28;20455;-71
2021/05/10 18:56:59;;;;;;;9.17;8.77;;;16.70;99.90;;;;;;4993661;28;20450;-71
2021/05/10 18:59:26;;;;;;;9.40;8.90;;;16.60;99.90;;;;;;4993336;28;20458;-71
2021/05/10 19:01:52;;;;;;;9.20;8.80;;;16.60;99.90;;;;;;4993737;28;20818;-71
2021/05/10 19:04:19;;;;;;;8.80;8.40;;;16.50;99.90;;;;;;4993365;28;20486;-71
2021/05/10 19:06:45;;;;;;;9.37;9.00;;;16.40;99.90;;;;;;4993530;28;20529;-71
2021/05/10 19:09:12;;;;;;;9.60;9.20;;;16.40;99.90;;;;;;4993458;28;20463;-72
2021/05/10 19:11:38;;;;;;;9.07;8.67;;;16.30;99.90;;;;;;4993309;28;20450;-71
2021/05/10 19:14:06;;;;;;;8.57;8.30;;;16.30;99.90;;;;;;4993365;28;20501;-71
2021/05/10 19:16:32;;;;;;;8.70;8.40;;;16.10;99.90;;;;;;4993154;28;21219;-71
2021/05/10 19:18:58;;;;;;;8.60;8.30;;;16.10;99.90;;;;;;4993382;28;20451;-71
2021/05/10 19:21:24;;;;;;;8.70;8.40;;;16.00;99.90;;;;;;4993259;28;20482;-71
2021/05/10 19:23:50;;;;;;;8.67;8.37;;;15.90;99.90;;;;;;4993057;28;21015;-70
2021/05/10 19:26:17;;;;;;;10.20;9.70;;;15.90;99.90;;;;;;4992824;28;20455;-70
2021/05/10 19:28:43;;;;;;;9.87;9.47;;;15.80;99.90;;;;;;4993148;28;20459;-70
2021/05/10 19:31:10;;;;;;;8.70;8.40;;;15.70;99.90;;;;;;4993273;28;20458;-70
2021/05/10 19:33:36;;;;;;;8.77;8.37;;;15.70;99.90;;;;;;4992155;28;20570;-70
2021/05/10 19:36:03;;;;;;;9.60;9.20;;;15.70;99.90;;;;;;4992968;28;20458;-70
2021/05/10 19:38:29;;;;;;;9.47;8.90;;;15.60;99.90;;;;;;4992610;28;20471;-70
2021/05/10 19:40:56;;;;;;;9.27;8.97;;;15.60;99.90;;;;;;4992907;28;20486;-70
2021/05/10 19:43:22;;;;;;;8.30;8.00;;;15.60;99.90;;;;;;4992683;28;20493;-70
2021/05/10 19:45:52;;;;;;;9.20;8.90;;;15.50;99.90;;;;;;4992771;28;20458;-70
2021/05/10 19:48:22;;;;;;;9.60;9.20;;;15.50;99.90;;;;;;4992561;28;20447;-70
2021/05/10 19:51:01;;;;;;;10.20;9.60;;;15.50;99.90;;;;;;4993242;28;20533;-70
2021/05/10 19:59:01;;;;;;;8.70;8.40;;;15.40;99.90;;;;;;4993914;28;20450;-70
2021/05/10 20:01:27;;;;;;;8.40;8.10;;;15.40;99.90;;;;;;4992109;28;20497;-70
2021/05/10 20:04:02;;;;;;;8.90;8.50;;;15.30;99.90;;;;;;4992367;28;20890;-70
2021/05/10 20:06:28;;;;;;;9.20;8.70;;;15.30;99.90;;;;;;4991814;28;20486;-71
2021/05/10 20:08:55;;;;;;;9.30;8.90;;;15.30;99.90;;;;;;4992205;28;20501;-70
2021/05/10 20:11:22;;;;;;;9.70;9.20;;;15.20;99.90;;;;;;4992005;28;20455;-70
2021/05/10 20:13:50;;;;;;;10.20;9.60;;;15.20;99.90;;;;;;4991931;28;20450;-70
2021/05/10 20:16:16;;;;;;;9.50;9.00;;;15.20;99.90;;;;;;4991765;28;20454;-70
2021/05/10 20:18:42;;;;;;;9.00;8.60;;;15.20;99.90;;;;;;4992080;28;20450;-70
2021/05/10 20:21:10;;;;;;;8.50;8.00;;;15.20;99.90;;;;;;4991938;28;20454;-71
2021/05/10 20:23:36;;;;;;;9.37;8.97;;;15.10;99.90;;;;;;4991639;28;20541;-70
2021/05/10 20:26:03;;;;;;;8.57;8.27;;;15.10;99.90;;;;;;4991796;28;20446;-70
2021/05/10 20:28:30;;;;;;;8.60;8.30;;;15.10;99.90;;;;;;4991334;28;20874;-70
2021/05/10 20:31:20;;;;;;;7.83;7.63;;;15.00;99.90;;;;;;4991893;28;20462;-69
2021/05/10 20:33:46;;;;;;;7.70;7.40;;;15.00;99.90;;;;;;4967269;28;20465;-69
2021/05/10 20:36:13;;;;;;;7.90;7.60;;;14.90;99.90;;;;;;4992156;28;20447;-72
2021/05/10 20:38:39;;;;;;;7.90;7.60;;;14.90;99.90;;;;;;4992121;28;20467;-68
2021/05/10 20:41:05;;;;;;;7.83;7.53;;;14.80;99.90;;;;;;4991814;28;20525;-68
2021/05/10 20:43:32;;;;;;;7.60;7.40;;;14.90;99.90;;;;;;4991802;28;20549;-68
2021/05/10 20:45:58;;;;;;;7.53;7.23;;;14.90;99.90;;;;;;4991926;28;20785;-68
2021/05/10 20:48:25;;;;;;;8.00;7.80;;;14.90;99.90;;;;;;4992157;28;20462;-68
2021/05/10 20:50:52;;;;;;;7.20;7.00;;;14.80;99.90;;;;;;4991896;28;20459;-68
2021/05/10 20:53:19;;;;;;;7.00;6.80;;;14.80;99.90;;;;;;4991566;28;20477;-69
2021/05/10 20:55:45;;;;;;;8.20;7.90;;;14.80;99.90;;;;;;4991734;28;20985;-69
2021/05/10 20:58:12;;;;;;;8.80;8.30;;;14.80;99.90;;;;;;4991918;28;20454;-69
2021/05/10 21:00:38;;;;;;;8.37;8.03;;;14.70;99.90;;;;;;4991812;28;20455;-69
2021/05/10 21:03:04;;;;;;;10.60;9.93;;;14.60;99.90;;;;;;4991361;28;20976;-69
2021/05/10 21:05:30;;;;;;;9.87;9.17;;;14.60;99.90;;;;;;4991294;28;20513;-69
2021/05/10 21:07:57;;;;;;;10.53;9.90;;;14.60;99.90;;;;;;4991512;28;20956;-69
2021/05/10 21:10:24;;;;;;;9.97;9.57;;;14.60;99.90;;;;;;4991559;28;20529;-70
2021/05/10 21:12:50;;;;;;;10.17;9.67;;;14.50;99.90;;;;;;4991984;28;20451;-70
2021/05/10 21:15:17;;;;;;;10.70;10.20;;;14.50;99.90;;;;;;4991397;28;20451;-69
2021/05/10 21:17:44;;;;;;;11.30;10.73;;;14.50;99.90;;;;;;4991219;28;20451;-70
2021/05/10 21:20:11;;;;;;;10.27;9.87;;;14.50;99.90;;;;;;4991488;28;20454;-69
2021/05/10 21:22:37;;;;;;;9.63;9.13;;;14.40;99.90;;;;;;4991782;28;20454;-69
2021/05/10 21:25:04;;;;;;;10.67;10.20;;;14.50;99.90;;;;;;4991368;28;20494;-70
2021/05/10 21:27:31;;;;;;;11.90;11.30;;;14.40;99.90;;;;;;4991006;28;20454;-71
2021/05/10 21:29:57;;;;;;;11.80;11.20;;;14.40;99.90;;;;;;4991532;28;20455;-69
2021/05/10 21:32:23;;;;;;;11.17;10.57;;;14.40;99.90;;;;;;4991386;28;20967;-70
2021/05/10 21:34:49;;;;;;;11.30;10.80;;;14.30;99.90;;;;;;4991132;28;20447;-70
2021/05/10 21:37:15;;;;;;;11.40;10.90;;;14.30;99.90;;;;;;4991265;28;20454;-69
2021/05/10 21:39:41;;;;;;;11.43;10.93;;;14.30;99.90;;;;;;4990698;28;20845;-69
2021/05/10 21:42:08;;;;;;;11.87;11.17;;;14.30;99.90;;;;;;4991267;28;20455;-69
2021/05/10 21:44:35;;;;;;;10.63;10.23;;;14.40;99.90;;;;;;4990932;28;20535;-69
2021/05/10 21:47:02;;;;;;;10.30;9.90;;;14.40;99.90;;;;;;4991048;28;20459;-69
2021/05/10 21:49:28;;;;;;;12.07;11.50;;;14.40;99.90;;;;;;4991185;28;20447;-70
2021/05/10 21:51:55;;;;;;;11.77;11.17;;;14.40;99.90;;;;;;4991139;28;21003;-70
2021/05/10 21:54:21;;;;;;;11.90;11.23;;;14.50;99.90;;;;;;4991216;28;20509;-70
2021/05/10 21:56:47;;;;;;;12.50;11.90;;;14.50;99.90;;;;;;4994058;28;20469;-70
2021/05/10 21:59:14;;;;;;;11.73;11.13;;;14.50;99.90;;;;;;4995018;28;20513;-70
2021/05/10 22:01:41;;;;;;;10.50;10.03;;;14.50;99.90;;;;;;4994884;28;20451;-70
2021/05/10 22:04:08;;;;;;;11.30;10.60;;;14.60;99.90;;;;;;4994951;28;20493;-70
2021/05/10 22:06:34;;;;;;;10.83;10.40;;;14.60;99.90;;;;;;4994790;28;20561;-70
2021/05/10 22:09:01;;;;;;;12.60;11.53;;;14.60;99.90;;;;;;4994685;28;20451;-70
2021/05/10 22:11:27;;;;;;;11.90;11.40;;;14.60;99.90;;;;;;4994700;28;20501;-70
2021/05/10 22:13:54;;;;;;;11.57;10.97;;;14.60;99.90;;;;;;4994950;28;20581;-69
2021/05/10 22:16:20;;;;;;;12.80;12.20;;;14.60;99.90;;;;;;4994522;28;20462;-68
2021/05/10 22:18:47;;;;;;;11.93;11.33;;;14.60;99.90;;;;;;4994645;28;20477;-69
2021/05/10 22:21:13;;;;;;;12.20;11.60;;;14.70;99.90;;;;;;4994150;28;20955;-69
2021/05/10 22:23:39;;;;;;;13.60;12.90;;;14.60;99.90;;;;;;4994560;28;20560;-69
2021/05/10 22:26:09;;;;;;;13.27;12.67;;;14.60;99.90;;;;;;4994370;28;20447;-69
2021/05/10 22:28:35;;;;;;;14.97;13.97;;;14.60;99.90;;;;;;4994774;28;20461;-69
2021/05/10 22:31:03;;;;;;;14.50;13.80;;;14.60;99.90;;;;;;4994310;28;20458;-68
2021/05/10 22:33:30;;;;;;;14.50;13.70;;;14.50;99.90;;;;;;4993952;28;20936;-68
2021/05/10 22:36:01;;;;;;;13.60;12.80;;;14.50;99.90;;;;;;4994272;28;20501;-68
2021/05/10 22:38:33;;;;;;;12.87;12.27;;;14.50;99.90;;;;;;4994273;28;20497;-69
2021/05/10 22:41:03;;;;;;;14.93;14.03;;;14.50;99.90;;;;;;4993987;28;20492;-69
2021/05/10 22:43:43;;;;;;;14.90;13.90;;;14.50;99.90;;;;;;4993793;28;20465;-70
2021/05/10 22:48:59;;;;;;;15.33;14.53;;;14.60;99.90;;;;;;4991385;28;20844;-69
2021/05/10 23:05:07;;;;;;;19.13;18.03;;;14.60;99.90;;;;;;4993182;28;20478;-69
2021/05/10 23:07:49;;;;;;;17.17;16.27;;;14.50;99.90;;;;;;4992618;28;20531;-69
2021/05/10 23:18:22;;;;;;;17.03;16.20;;;14.50;99.90;;;;;;4992530;28;20530;-68
2021/05/10 23:20:48;;;;;;;18.90;17.90;;;14.60;99.90;;;;;;4993387;28;20447;-67
2021/05/10 23:23:15;;;;;;;17.63;16.50;;;14.60;99.90;;;;;;4993320;28;20443;-67
2021/05/10 23:25:42;;;;;;;17.93;16.83;;;14.50;99.90;;;;;;4993576;28;20489;-67
2021/05/10 23:28:08;;;;;;;18.07;16.87;;;14.60;99.90;;;;;;4993361;28;20451;-70
2021/05/10 23:30:35;;;;;;;18.13;17.03;;;14.50;99.90;;;;;;4993264;28;20817;-70
2021/05/10 23:33:02;;;;;;;19.30;18.10;;;14.60;99.90;;;;;;4993099;28;20553;-69
2021/05/10 23:35:28;;;;;;;18.97;17.87;;;14.50;99.90;;;;;;4993213;28;20818;-69
2021/05/10 23:37:54;;;;;;;18.27;17.03;;;14.50;99.90;;;;;;4993272;28;20863;-70
2021/05/10 23:40:21;;;;;;;19.70;18.30;;;14.50;99.90;;;;;;4992776;28;20482;-70
2021/05/10 23:42:48;;;;;;;20.47;19.07;;;14.40;99.90;;;;;;4992995;28;20451;-70
2021/05/10 23:45:15;;;;;;;19.80;18.40;;;14.40;99.90;;;;;;4992716;28;21000;-70
2021/05/10 23:47:41;;;;;;;20.13;18.73;;;14.40;99.90;;;;;;4992708;28;20491;-70
2021/05/10 23:50:09;;;;;;;21.20;19.60;;;14.30;99.90;;;;;;4993057;28;20459;-70
2021/05/10 23:52:35;;;;;;;23.13;21.43;;;14.30;99.90;;;;;;4992891;28;20827;-70
2021/05/10 23:55:01;;;;;;;21.90;20.20;;;14.20;99.90;;;;;;4992685;28;20450;-68
2021/05/10 23:57:28;;;;;;;23.00;21.17;;;14.30;99.90;;;;;;4992853;28;20450;-68
2021/05/10 23:59:55;;;;;;;20.47;19.13;;;14.30;99.90;;;;;;4992883;28;20443;-68
